createdAt,value
2022-10-29T00:01:46.737Z,79.92
2022-10-29T00:04:14.516Z,79.83
2022-10-29T00:06:42.210Z,79.96
2022-10-29T00:09:11.458Z,79.87
2022-10-29T00:11:39.126Z,79.90
2022-10-29T00:14:07.004Z,79.27
2022-10-29T00:16:37.599Z,79.20
2022-10-29T00:19:07.040Z,79.22
2022-10-29T00:21:34.897Z,79.10
2022-10-29T00:24:02.565Z,79.23
2022-10-29T00:26:31.137Z,79.26
2022-10-29T00:28:58.921Z,79.09
2022-10-29T00:31:26.698Z,78.77
2022-10-29T00:33:55.177Z,78.76
2022-10-29T00:36:26.256Z,79.16
2022-10-29T00:38:53.994Z,78.84
2022-10-29T00:41:23.436Z,78.85
2022-10-29T00:43:52.589Z,79.18
2022-10-29T00:46:31.857Z,79.29
2022-10-29T00:49:00.018Z,78.91
2022-10-29T00:51:31.910Z,79.07
2022-10-29T00:54:02.513Z,79.05
2022-10-29T00:56:30.953Z,79.32
2022-10-29T00:58:58.684Z,78.77
2022-10-29T01:01:26.578Z,78.63
2022-10-29T01:03:54.295Z,78.94
2022-10-29T01:06:22.424Z,78.40
2022-10-29T01:08:51.484Z,78.65
2022-10-29T01:11:24.547Z,78.95
2022-10-29T01:14:03.952Z,78.77
2022-10-29T01:16:39.583Z,79.16
2022-10-29T01:19:15.023Z,78.24
2022-10-29T01:21:45.057Z,78.71
2022-10-29T01:24:45.978Z,78.28
2022-10-29T01:27:51.914Z,78.00
2022-10-29T01:30:24.866Z,77.69
2022-10-29T01:33:07.749Z,77.74
2022-10-29T01:35:44.587Z,77.71
2022-10-29T01:38:20.432Z,77.68
2022-10-29T01:40:52.627Z,77.75
2022-10-29T01:43:23.702Z,78.25
2022-10-29T01:45:55.211Z,78.33
2022-10-29T01:48:30.556Z,78.13
2022-10-29T01:51:05.011Z,77.95
2022-10-29T01:53:36.145Z,77.88
2022-10-29T01:56:03.873Z,77.92
2022-10-29T01:58:31.949Z,77.96
2022-10-29T02:01:05.359Z,77.84
2022-10-29T02:03:43.855Z,77.74
2022-10-29T02:06:20.200Z,77.76
2022-10-29T02:08:52.812Z,77.60
2022-10-29T02:11:24.673Z,78.16
2022-10-29T02:13:57.695Z,78.13
2022-10-29T02:16:26.422Z,77.58
2022-10-29T02:18:55.574Z,77.57
2022-10-29T02:21:23.296Z,77.69
2022-10-29T02:23:51.527Z,77.68
2022-10-29T02:26:19.253Z,77.33
2022-10-29T02:28:46.917Z,77.00
2022-10-29T02:31:14.696Z,77.14
2022-10-29T02:33:42.333Z,77.29
2022-10-29T02:36:11.415Z,76.66
2022-10-29T02:38:39.090Z,76.53
2022-10-29T02:41:06.796Z,76.75
2022-10-29T02:43:34.453Z,76.91
2022-10-29T02:46:12.738Z,76.87
2022-10-29T02:48:40.395Z,76.95
2022-10-29T02:51:08.113Z,76.92
2022-10-29T02:53:37.238Z,76.34
2022-10-29T02:56:05.677Z,76.40
2022-10-29T02:58:33.457Z,76.41
2022-10-29T03:01:01.663Z,76.39
2022-10-29T03:03:29.509Z,76.34
2022-10-29T03:05:57.228Z,76.73
2022-10-29T03:08:24.882Z,76.08
2022-10-29T03:10:55.742Z,76.82
2022-10-29T03:13:23.442Z,76.61
2022-10-29T03:15:51.133Z,76.63
2022-10-29T03:18:18.816Z,76.52
2022-10-29T03:20:47.530Z,77.01
2022-10-29T03:23:15.255Z,76.79
2022-10-29T03:25:42.976Z,76.91
2022-10-29T03:28:12.090Z,76.61
2022-10-29T03:30:39.785Z,76.36
2022-10-29T03:33:07.425Z,76.68
2022-10-29T03:35:35.253Z,76.89
2022-10-29T03:38:02.971Z,76.31
2022-10-29T03:40:30.623Z,76.80
2022-10-29T03:42:58.690Z,77.03
2022-10-29T03:45:27.893Z,77.07
2022-10-29T03:47:56.313Z,77.46
2022-10-29T03:50:24.194Z,77.34
2022-10-29T03:52:51.819Z,77.24
2022-10-29T03:55:19.538Z,77.42
2022-10-29T03:57:47.174Z,77.11
2022-10-29T04:00:15.829Z,77.18
2022-10-29T04:02:44.965Z,76.83
2022-10-29T04:05:12.711Z,77.06
2022-10-29T04:07:40.385Z,76.64
2022-10-29T04:10:08.497Z,76.68
2022-10-29T04:12:36.210Z,76.85
2022-10-29T04:15:03.874Z,76.93
2022-10-29T04:17:31.502Z,77.06
2022-10-29T04:20:00.552Z,76.67
2022-10-29T04:28:42.431Z,76.72
2022-10-29T04:30:51.317Z,77.17
2022-10-29T04:33:19.040Z,77.47
2022-10-29T04:35:52.760Z,77.42
2022-10-29T04:38:20.670Z,77.32
2022-10-29T04:40:48.347Z,77.26
2022-10-29T04:43:16.261Z,77.41
2022-10-29T04:48:11.607Z,77.21
2022-10-29T04:50:39.604Z,77.05
2022-10-29T04:53:09.300Z,77.33
2022-10-29T04:55:37.743Z,77.29
2022-10-29T04:58:05.602Z,77.15
2022-10-29T05:00:33.933Z,76.92
2022-10-29T05:03:01.594Z,76.75
2022-10-29T05:05:29.697Z,77.01
2022-10-29T05:07:58.983Z,76.56
2022-10-29T05:10:30.339Z,76.83
2022-10-29T05:12:59.462Z,76.78
2022-10-29T05:15:27.255Z,77.11
2022-10-29T05:17:55.219Z,76.77
2022-10-29T05:20:23.355Z,76.68
2022-10-29T05:22:51.015Z,76.95
2022-10-29T05:25:18.639Z,77.04
2022-10-29T05:27:47.691Z,77.30
2022-10-29T05:30:15.408Z,77.04
2022-10-29T05:32:43.109Z,77.40
2022-10-29T05:35:10.768Z,77.49
2022-10-29T05:37:38.482Z,77.09
2022-10-29T05:40:07.031Z,77.49
2022-10-29T05:42:34.684Z,77.37
2022-10-29T05:45:03.749Z,77.30
2022-10-29T05:47:31.420Z,77.01
2022-10-29T05:49:59.051Z,76.76
2022-10-29T05:52:26.712Z,77.12
2022-10-29T05:54:54.377Z,77.06
2022-10-29T05:57:22.046Z,77.79
2022-10-29T05:59:49.769Z,78.17
2022-10-29T06:02:18.933Z,77.55
2022-10-29T06:04:46.828Z,78.07
2022-10-29T06:07:14.502Z,78.08
2022-10-29T06:09:42.151Z,77.58
2022-10-29T06:12:10.079Z,78.03
2022-10-29T06:14:37.846Z,77.66
2022-10-29T06:17:05.518Z,77.93
2022-10-29T06:19:34.560Z,77.84
2022-10-29T06:22:02.265Z,77.83
2022-10-29T06:24:29.927Z,77.55
2022-10-29T06:26:57.623Z,77.31
2022-10-29T06:29:25.302Z,77.25
2022-10-29T06:31:53.127Z,77.36
2022-10-29T06:34:20.829Z,77.15
2022-10-29T06:36:49.843Z,77.48
2022-10-29T06:39:17.539Z,77.72
2022-10-29T06:41:45.195Z,77.95
2022-10-29T06:44:12.874Z,77.85
2022-10-29T06:46:41.584Z,78.38
2022-10-29T06:49:09.272Z,78.27
2022-10-29T06:51:36.868Z,78.56
2022-10-29T06:54:06.119Z,78.79
2022-10-29T06:56:34.563Z,78.58
2022-10-29T06:59:02.204Z,79.03
2022-10-29T07:01:32.817Z,79.25
2022-10-29T07:04:00.686Z,79.48
2022-10-29T07:06:30.128Z,79.67
2022-10-29T07:08:57.755Z,80.31
2022-10-29T07:11:26.945Z,80.33
2022-10-29T07:13:54.653Z,80.45
2022-10-29T07:16:22.303Z,80.58
2022-10-29T07:18:49.943Z,80.86
2022-10-29T07:21:17.553Z,81.23
2022-10-29T07:23:45.483Z,81.62
2022-10-29T07:26:13.155Z,81.56
2022-10-29T07:28:42.250Z,81.64
2022-10-29T07:31:09.932Z,82.17
2022-10-29T07:33:37.547Z,82.15
2022-10-29T07:36:05.740Z,82.36
2022-10-29T07:38:33.405Z,82.32
2022-10-29T07:41:01.131Z,82.54
2022-10-29T07:43:28.789Z,83.29
2022-10-29T07:45:57.854Z,82.78
2022-10-29T07:48:25.554Z,83.10
2022-10-29T07:50:53.188Z,83.32
2022-10-29T07:53:20.917Z,83.41
2022-10-29T07:55:53.510Z,83.33
2022-10-29T07:58:21.199Z,83.94
2022-10-29T08:00:49.007Z,83.81
2022-10-29T08:03:18.312Z,84.16
2022-10-29T08:05:55.158Z,84.51
2022-10-29T08:08:24.294Z,84.78
2022-10-29T08:10:51.957Z,84.66
2022-10-29T08:13:19.612Z,84.86
2022-10-29T08:15:47.920Z,85.24
2022-10-29T08:18:18.645Z,85.46
2022-10-29T08:20:46.631Z,85.56
2022-10-29T08:23:14.488Z,85.70
2022-10-29T08:25:42.858Z,85.60
2022-10-29T08:28:12.764Z,86.31
2022-10-29T08:30:40.614Z,86.63
2022-10-29T08:33:08.735Z,87.57
2022-10-29T08:35:37.802Z,88.26
2022-10-29T08:38:05.554Z,88.16
2022-10-29T08:40:40.667Z,88.50
2022-10-29T08:43:29.495Z,88.77
2022-10-29T08:45:57.432Z,88.88
2022-10-29T08:48:35.570Z,89.48
2022-10-29T08:51:10.913Z,89.42
2022-10-29T08:53:41.814Z,90.58
2022-10-29T08:56:15.421Z,90.81
2022-10-29T08:58:48.584Z,91.24
2022-10-29T09:01:16.387Z,91.05
2022-10-29T09:03:44.128Z,90.82
2022-10-29T09:06:16.057Z,90.69
2022-10-29T09:08:57.882Z,90.78
2022-10-29T09:11:36.979Z,89.92
2022-10-29T09:14:18.320Z,89.72
2022-10-29T09:16:50.399Z,90.44
2022-10-29T09:19:29.828Z,90.14
2022-10-29T09:22:05.594Z,90.06
2022-10-29T09:24:38.461Z,89.21
2022-10-29T09:27:12.734Z,89.22
2022-10-29T09:29:52.691Z,88.88
2022-10-29T09:32:23.470Z,88.65
2022-10-29T09:34:53.319Z,88.75
2022-10-29T09:37:26.085Z,88.92
2022-10-29T09:39:54.752Z,90.24
2022-10-29T09:42:27.833Z,89.38
2022-10-29T09:44:57.544Z,89.13
2022-10-29T09:47:33.118Z,88.25
2022-10-29T09:50:12.960Z,87.61
2022-10-29T09:52:43.231Z,88.32
2022-10-29T09:55:18.250Z,86.58
2022-10-29T09:57:46.870Z,86.76
2022-10-29T10:00:19.166Z,86.63
2022-10-29T10:02:51.862Z,85.51
2022-10-29T10:05:25.056Z,84.63
2022-10-29T10:08:07.807Z,84.60
2022-10-29T10:10:36.499Z,85.57
2022-10-29T10:13:05.729Z,86.56
2022-10-29T10:15:35.196Z,84.70
2022-10-29T10:18:04.700Z,83.40
2022-10-29T10:20:38.245Z,82.88
2022-10-29T10:23:24.285Z,82.68
2022-10-29T10:25:53.022Z,82.67
2022-10-29T10:28:22.225Z,83.62
2022-10-29T10:31:08.697Z,83.50
2022-10-29T10:33:38.024Z,83.30
2022-10-29T10:36:07.537Z,83.16
2022-10-29T10:38:45.237Z,83.13
2022-10-29T10:41:13.977Z,82.84
2022-10-29T10:43:43.935Z,82.58
2022-10-29T10:46:14.988Z,83.29
2022-10-29T10:48:42.855Z,82.80
2022-10-29T10:51:15.246Z,82.85
2022-10-29T10:53:44.388Z,82.16
2022-10-29T10:56:19.321Z,82.24
2022-10-29T10:58:51.645Z,83.12
2022-10-29T11:01:22.790Z,82.64
2022-10-29T11:03:58.769Z,81.74
2022-10-29T11:06:29.623Z,82.97
2022-10-29T11:09:03.695Z,82.55
2022-10-29T11:11:33.977Z,82.71
2022-10-29T11:14:04.715Z,82.83
2022-10-29T11:16:38.978Z,82.51
2022-10-29T11:19:13.206Z,82.75
2022-10-29T11:21:45.147Z,82.45
2022-10-29T11:24:19.293Z,81.22
2022-10-29T11:26:49.773Z,81.79
2022-10-29T11:29:22.351Z,81.37
2022-10-29T11:31:56.683Z,81.38
2022-10-29T11:34:26.072Z,81.23
2022-10-29T11:36:58.221Z,81.53
2022-10-29T11:39:32.673Z,81.51
2022-10-29T11:42:01.220Z,81.25
2022-10-29T11:44:30.724Z,81.59
2022-10-29T11:47:07.809Z,82.33
2022-10-29T11:49:48.977Z,83.32
2022-10-29T11:52:20.125Z,84.07
2022-10-29T11:54:55.484Z,80.89
2022-10-29T11:57:26.153Z,80.10
2022-10-29T12:00:03.415Z,79.15
2022-10-29T12:02:45.178Z,79.30
2022-10-29T12:05:17.559Z,79.57
2022-10-29T12:07:58.221Z,78.46
2022-10-29T12:10:35.277Z,78.21
2022-10-29T12:13:07.093Z,78.28
2022-10-29T12:15:40.105Z,78.61
2022-10-29T12:18:16.789Z,79.47
2022-10-29T12:20:49.003Z,79.05
2022-10-29T12:23:26.222Z,79.98
2022-10-29T12:26:04.725Z,79.39
2022-10-29T12:28:42.830Z,78.50
2022-10-29T12:31:20.255Z,78.53
2022-10-29T12:33:52.160Z,78.63
2022-10-29T12:36:25.599Z,77.98
2022-10-29T12:38:55.188Z,77.44
2022-10-29T12:41:26.111Z,78.07
2022-10-29T12:44:00.211Z,77.58
2022-10-29T12:46:32.739Z,78.31
2022-10-29T12:49:06.415Z,77.18
2022-10-29T12:51:40.889Z,76.28
2022-10-29T12:54:19.360Z,75.62
2022-10-29T12:56:50.431Z,75.51
2022-10-29T12:59:33.579Z,75.20
2022-10-29T13:02:30.214Z,75.78
2022-10-29T13:05:18.800Z,75.07
2022-10-29T13:08:32.432Z,75.69
2022-10-29T13:11:00.223Z,75.81
2022-10-29T13:13:47.871Z,74.53
2022-10-29T13:16:17.573Z,74.49
2022-10-29T13:19:01.404Z,74.82
2022-10-29T13:22:00.881Z,75.07
2022-10-29T13:24:29.291Z,74.48
2022-10-29T13:26:59.954Z,73.70
2022-10-29T13:29:50.204Z,74.58
2022-10-29T13:32:34.312Z,74.12
2022-10-29T13:35:03.612Z,73.82
2022-10-29T13:38:11.183Z,73.38
2022-10-29T13:41:09.524Z,73.56
2022-10-29T13:45:14.866Z,73.99
2022-10-29T13:47:42.597Z,73.62
2022-10-29T13:50:12.012Z,73.26
2022-10-29T13:52:41.686Z,73.32
2022-10-29T13:55:10.222Z,74.29
2022-10-29T13:57:40.034Z,74.08
2022-10-29T14:00:16.422Z,73.03
2022-10-29T14:02:51.591Z,72.78
2022-10-29T14:05:22.076Z,72.18
2022-10-29T14:07:55.798Z,72.02
2022-10-29T14:10:26.452Z,72.66
2022-10-29T14:12:58.485Z,71.74
2022-10-29T14:15:26.420Z,71.76
2022-10-29T14:17:55.446Z,71.20
2022-10-29T14:20:25.758Z,71.73
2022-10-29T14:22:53.896Z,72.54
2022-10-29T14:25:29.851Z,73.07
2022-10-29T14:28:17.751Z,72.34
2022-10-29T14:30:45.607Z,73.24
2022-10-29T14:33:24.770Z,72.88
2022-10-29T14:35:53.666Z,72.77
2022-10-29T14:38:23.410Z,74.37
2022-10-29T14:40:51.112Z,73.83
2022-10-29T14:45:18.596Z,74.09
2022-10-29T14:47:50.167Z,74.05
2022-10-29T14:50:20.163Z,74.07
2022-10-29T14:52:53.612Z,73.98
2022-10-29T14:55:23.946Z,73.55
2022-10-29T14:57:56.023Z,73.88
2022-10-29T15:00:26.640Z,74.00
2022-10-29T15:02:55.458Z,74.65
2022-10-29T15:05:26.176Z,74.55
2022-10-29T15:08:04.916Z,74.82
2022-10-29T15:12:02.839Z,74.67
2022-10-29T15:14:37.649Z,75.16
2022-10-29T15:17:17.577Z,75.66
2022-10-29T15:19:46.758Z,75.65
2022-10-29T15:22:19.693Z,75.67
2022-10-29T15:24:49.247Z,75.49
2022-10-29T15:27:18.309Z,75.65
2022-10-29T15:29:48.034Z,75.91
2022-10-29T15:32:17.452Z,75.96
2022-10-29T15:34:48.513Z,75.59
2022-10-29T15:37:24.618Z,75.59
2022-10-29T15:40:01.450Z,75.37
2022-10-29T15:42:32.132Z,75.65
2022-10-29T15:45:24.216Z,75.37
2022-10-29T15:47:54.395Z,75.45
2022-10-29T15:50:24.061Z,75.58
2022-10-29T15:52:56.938Z,75.25
2022-10-29T15:55:27.537Z,75.45
2022-10-29T15:58:00.830Z,75.22
2022-10-29T16:01:36.146Z,75.04
2022-10-29T16:04:03.965Z,75.02
2022-10-29T16:06:32.087Z,75.04
2022-10-29T16:09:01.015Z,75.37
2022-10-29T16:11:28.710Z,75.05
2022-10-29T16:13:56.393Z,75.37
2022-10-29T16:16:25.183Z,75.12
2022-10-29T16:18:54.526Z,75.49
2022-10-29T16:21:24.303Z,75.37
2022-10-29T16:23:52.729Z,75.44
2022-10-29T16:26:22.187Z,75.53
2022-10-29T16:28:49.807Z,75.34
2022-10-29T16:31:20.341Z,75.63
2022-10-29T16:33:48.408Z,75.23
2022-10-29T16:36:17.702Z,75.23
2022-10-29T16:38:45.355Z,75.43
2022-10-29T16:41:13.374Z,75.27
2022-10-29T16:43:41.236Z,75.11
2022-10-29T16:46:09.116Z,75.40
2022-10-29T16:48:36.829Z,75.63
2022-10-29T16:51:04.921Z,75.03
2022-10-29T16:53:34.097Z,75.28
2022-10-29T16:56:01.800Z,75.44
2022-10-29T16:58:29.468Z,75.39
2022-10-29T17:01:03.192Z,75.29
2022-10-29T17:03:30.963Z,75.62
2022-10-29T17:06:03.887Z,75.23
2022-10-29T17:08:34.347Z,75.33
2022-10-29T17:11:02.052Z,75.50
2022-10-29T17:13:29.640Z,75.13
2022-10-29T17:15:57.270Z,75.54
2022-10-29T17:18:25.031Z,75.28
2022-10-29T17:20:57.034Z,75.65
2022-10-29T17:23:24.763Z,75.68
2022-10-29T17:25:54.890Z,75.47
2022-10-29T17:28:22.771Z,75.46
2022-10-29T17:30:50.465Z,75.64
2022-10-29T17:33:18.453Z,75.30
2022-10-29T17:35:46.492Z,75.66
2022-10-29T17:38:14.150Z,75.59
2022-10-29T17:40:44.606Z,75.59
2022-10-29T17:43:13.675Z,75.45
2022-10-29T17:45:43.628Z,75.56
2022-10-29T17:48:12.612Z,75.56
2022-10-29T17:50:40.221Z,75.40
2022-10-29T17:53:07.817Z,75.42
2022-10-29T17:55:35.437Z,75.41
2022-10-29T17:58:03.124Z,75.66
2022-10-29T18:00:32.108Z,75.58
2022-10-29T18:05:32.587Z,75.23
2022-10-29T18:08:00.472Z,75.39
2022-10-29T18:10:28.960Z,75.36
2022-10-29T18:12:56.578Z,75.49
2022-10-29T18:15:24.301Z,75.22
2022-10-29T18:20:25.812Z,75.52
2022-10-29T18:22:55.833Z,74.77
2022-10-29T18:25:23.865Z,75.29
2022-10-29T18:27:55.426Z,74.96
2022-10-29T18:30:23.807Z,75.18
2022-10-29T18:32:52.844Z,74.77
2022-10-29T18:35:20.488Z,75.00
2022-10-29T18:37:48.161Z,74.88
2022-10-29T18:40:15.891Z,74.91
2022-10-29T18:42:43.504Z,74.65
2022-10-29T18:45:11.796Z,74.77
2022-10-29T18:47:39.335Z,74.93
2022-10-29T18:50:09.123Z,74.37
2022-10-29T18:52:36.793Z,74.69
2022-10-29T18:55:04.719Z,74.46
2022-10-29T18:57:33.065Z,74.73
2022-10-29T19:00:00.649Z,74.28
2022-10-29T19:02:28.333Z,74.02
2022-10-29T19:04:56.076Z,74.58
2022-10-29T19:07:25.147Z,74.09
2022-10-29T19:09:52.754Z,74.28
2022-10-29T19:12:20.441Z,74.38
2022-10-29T19:14:48.061Z,73.83
2022-10-29T19:17:15.665Z,74.40
2022-10-29T19:19:43.228Z,74.32
2022-10-29T19:22:10.889Z,74.09
2022-10-29T19:24:39.938Z,73.71
2022-10-29T19:27:07.568Z,74.06
2022-10-29T19:29:35.172Z,74.08
2022-10-29T19:32:02.773Z,73.71
2022-10-29T19:34:30.517Z,74.24
2022-10-29T19:36:58.186Z,73.93
2022-10-29T19:39:25.852Z,74.00
2022-10-29T19:41:54.854Z,74.12
2022-10-29T19:44:22.464Z,74.61
2022-10-29T19:46:51.038Z,74.29
2022-10-29T19:49:18.876Z,73.38
2022-10-29T19:51:46.519Z,73.70
2022-10-29T19:54:14.103Z,73.15
2022-10-29T19:56:41.679Z,73.33
2022-10-29T19:59:10.813Z,72.83
2022-10-29T20:01:41.648Z,73.25
2022-10-29T20:04:09.498Z,72.70
2022-10-29T20:06:37.176Z,72.61
2022-10-29T20:09:05.069Z,72.49
2022-10-29T20:11:32.752Z,72.40
2022-10-29T20:14:00.383Z,72.54
2022-10-29T20:16:29.403Z,72.60
2022-10-29T20:18:57.005Z,72.28
2022-10-29T20:21:24.647Z,72.29
2022-10-29T20:23:52.494Z,71.98
2022-10-29T20:26:20.077Z,72.04
2022-10-29T20:28:47.668Z,71.72
2022-10-29T20:31:29.748Z,71.72
2022-10-29T20:34:00.915Z,72.08
2022-10-29T20:36:30.611Z,71.51
2022-10-29T20:38:58.627Z,71.45
2022-10-29T20:41:26.465Z,71.36
2022-10-29T20:43:55.510Z,71.39
2022-10-29T20:46:23.883Z,70.93
2022-10-29T20:48:51.591Z,70.98
2022-10-29T20:51:22.450Z,71.10
2022-10-29T20:53:50.048Z,70.89
2022-10-29T20:56:18.867Z,70.76
2022-10-29T20:58:46.674Z,70.52
2022-10-29T21:01:16.333Z,70.57
2022-10-29T21:03:44.689Z,69.95
2022-10-29T21:06:16.915Z,70.29
2022-10-29T21:08:46.884Z,70.07
2022-10-29T21:11:15.347Z,69.96
2022-10-29T21:13:42.992Z,69.95
2022-10-29T21:16:16.631Z,69.97
2022-10-29T21:18:45.408Z,70.32
2022-10-29T21:21:13.117Z,70.11
2022-10-29T21:23:40.999Z,70.08
2022-10-29T21:26:13.256Z,69.70
2022-10-29T21:28:40.931Z,69.87
2022-10-29T21:31:08.601Z,69.23
2022-10-29T21:33:36.599Z,69.21
2022-10-29T21:36:04.392Z,69.12
2022-10-29T21:38:33.262Z,69.10
2022-10-29T21:41:01.936Z,69.26
2022-10-29T21:43:31.039Z,69.48
2022-10-29T21:45:58.745Z,69.23
2022-10-29T21:48:26.823Z,69.07
2022-10-29T21:51:00.930Z,69.06
2022-10-29T21:53:28.545Z,68.87
2022-10-29T21:55:59.661Z,68.79
2022-10-29T21:58:27.995Z,68.92
2022-10-29T22:01:15.206Z,69.09
2022-10-29T22:03:44.571Z,69.35
2022-10-29T22:06:14.669Z,69.59
2022-10-29T22:08:42.522Z,69.48
2022-10-29T22:11:10.618Z,69.08
2022-10-29T22:13:38.566Z,69.74
2022-10-29T22:16:07.526Z,69.50
2022-10-29T22:18:37.265Z,69.19
2022-10-29T22:21:06.598Z,69.70
2022-10-29T22:23:34.392Z,69.79
2022-10-29T22:26:02.084Z,69.07
2022-10-29T22:28:29.775Z,69.10
2022-10-29T22:31:01.225Z,69.08
2022-10-29T22:33:29.355Z,68.74
2022-10-29T22:36:04.609Z,68.81
2022-10-29T22:38:32.263Z,68.77
2022-10-29T22:41:04.903Z,68.29
2022-10-29T22:43:32.880Z,68.94
2022-10-29T22:46:00.538Z,68.15
2022-10-29T22:48:28.142Z,68.81
2022-10-29T22:51:01.739Z,68.72
2022-10-29T22:53:29.519Z,68.49
2022-10-29T22:55:57.151Z,68.29
2022-10-29T22:58:24.979Z,68.36
2022-10-29T23:01:02.690Z,68.82
2022-10-29T23:03:30.555Z,68.14
2022-10-29T23:05:58.434Z,68.45
2022-10-29T23:08:27.589Z,68.43
2022-10-29T23:10:55.601Z,68.42
2022-10-29T23:13:23.342Z,69.06
2022-10-29T23:15:52.155Z,68.79
2022-10-29T23:18:20.071Z,68.89
2022-10-29T23:20:47.691Z,68.79
2022-10-29T23:23:15.497Z,69.00
2022-10-29T23:25:44.516Z,68.52
2022-10-29T23:28:12.189Z,68.66
2022-10-29T23:30:39.759Z,69.00
2022-10-29T23:33:07.433Z,68.67
2022-10-29T23:35:35.428Z,68.79
2022-10-29T23:38:03.068Z,68.69
2022-10-29T23:40:30.752Z,68.66
2022-10-29T23:42:59.763Z,68.44
2022-10-29T23:45:27.441Z,68.85
2022-10-29T23:47:55.470Z,68.57
2022-10-29T23:50:23.400Z,68.53
2022-10-29T23:52:51.072Z,68.64
2022-10-29T23:55:18.786Z,68.99
2022-10-29T23:57:46.501Z,69.05
